Eupraxia — 2BXA2 — position and weather

sailwx.info

Track history (hours):
 
Tides and Currents Weather Stations Pressure Air Temp Water Temp Dewpoint Dewpoint Depression Visibility Wind Speed Wind Dir Waves Ship Positions

Eupraxia

Last reported at 2017-Sep-21 19:57 UTC. Time now 2017-Nov-19 01:18 UTC.
Position N 39°48' E 001°28'.
Warning: this ship's position is 58 days out of date.

Length 17 m.

Type: Pleasure craft. MMSI: 235070075.

Date/timePositionNaut miles runAvg speedWind from/ knotsBaromVisibWave heightAir tempDewpointWater temp
2017-Sep-21 19:57N 39°48' E 001°28'3 5.8
2017-Sep-21 19:27N 39°47' E 001°31'3 5.5
2017-Sep-21 18:58N 39°46' E 001°35'3 5.9
2017-Sep-21 18:30N 39°45' E 001°38'3 6.0
2017-Sep-21 17:59N 39°44' E 001°42'3 6.4
2017-Sep-21 17:27N 39°43' E 001°46'13 5.5
2017-Sep-21 15:04N 39°38' E 002°02'1 5.5
2017-Sep-21 14:55N 39°37' E 002°03'2 5.5
2017-Sep-21 14:29N 39°36' E 002°05'3 5.8
2017-Sep-21 13:57N 39°35' E 002°09'3 5.9
2017-Sep-21 13:25N 39°34' E 002°13'9 4.8
2017-Sep-21 11:28N 39°31' E 002°24'3 0.1
2017-Sep-20 13:44N 39°31' E 002°28'0 0.0
2017-Sep-20 13:02N 39°31' E 002°28'0 0.0
2017-Sep-20 12:50N 39°31' E 002°28'0 0.0
2017-Sep-20 12:20N 39°31' E 002°28'0 0.3
2017-Sep-20 11:32N 39°31' E 002°28'1 7.4
2017-Sep-20 11:22N 39°31' E 002°26'2 0.0
2017-Sep-18 09:25N 39°31' E 002°24'2 5.1
2017-Sep-18 09:00N 39°31' E 002°27'1 0.1
2017-Sep-17 10:48N 39°31' E 002°28'0 0.0
2017-Sep-16 12:44N 39°31' E 002°28'  
2017-Sep-12 10:10N 39°30' E 002°24'1 3.3
2017-Sep-12 10:00N 39°29' E 002°25'5 6.4
2017-Sep-12 09:13N 39°27' E 002°31'1 5.2
2017-Sep-12 09:00N 39°28' E 002°32'3 6.1
2017-Sep-12 08:29N 39°31' E 002°33'  
Track history (hours):
 
Tides and Currents Weather Stations Pressure Air Temp Water Temp Dewpoint Dewpoint Depression Visibility Wind Speed Wind Dir Waves Ship Positions

Eupraxia

Last reported at 2017-Sep-21 19:57 UTC. Time now 2017-Nov-19 01:18 UTC.
Position N 39°48' E 001°28'.
Warning: this ship's position is 58 days out of date.

Length 17 m.

Type: Pleasure craft. MMSI: 235070075.

Date/timePositionNaut miles runAvg speedWind from/ knotsBaromVisibWave heightAir tempDewpointWater temp
2017-Sep-21 19:57N 39°48' E 001°28'3 5.8
2017-Sep-21 19:27N 39°47' E 001°31'3 5.5
2017-Sep-21 18:58N 39°46' E 001°35'3 5.9
2017-Sep-21 18:30N 39°45' E 001°38'3 6.0
2017-Sep-21 17:59N 39°44' E 001°42'3 6.4
2017-Sep-21 17:27N 39°43' E 001°46'13 5.5
2017-Sep-21 15:04N 39°38' E 002°02'1 5.5
2017-Sep-21 14:55N 39°37' E 002°03'2 5.5
2017-Sep-21 14:29N 39°36' E 002°05'3 5.8
2017-Sep-21 13:57N 39°35' E 002°09'3 5.9
2017-Sep-21 13:25N 39°34' E 002°13'9 4.8
2017-Sep-21 11:28N 39°31' E 002°24'3 0.1
2017-Sep-20 13:44N 39°31' E 002°28'0 0.0
2017-Sep-20 13:02N 39°31' E 002°28'0 0.0
2017-Sep-20 12:50N 39°31' E 002°28'0 0.0
2017-Sep-20 12:20N 39°31' E 002°28'0 0.3
2017-Sep-20 11:32N 39°31' E 002°28'1 7.4
2017-Sep-20 11:22N 39°31' E 002°26'2 0.0
2017-Sep-18 09:25N 39°31' E 002°24'2 5.1
2017-Sep-18 09:00N 39°31' E 002°27'1 0.1
2017-Sep-17 10:48N 39°31' E 002°28'0 0.0
2017-Sep-16 12:44N 39°31' E 002°28'  
2017-Sep-12 10:10N 39°30' E 002°24'1 3.3
2017-Sep-12 10:00N 39°29' E 002°25'5 6.4
2017-Sep-12 09:13N 39°27' E 002°31'1 5.2
2017-Sep-12 09:00N 39°28' E 002°32'3 6.1
2017-Sep-12 08:29N 39°31' E 002°33'  

Dump ship's entire track history